sensor_id;sensor_type;location;lat;lon;timestamp;pressure;altitude;pressure_sealevel;temperature;humidity
7105;BME280;3594;42.152;24.714;2022-12-29T00:02:09;-23957.97;;;5.06;nan
7105;BME280;3594;42.152;24.714;2022-12-29T00:04:35;-23958.25;;;5.07;nan
7105;BME280;3594;42.152;24.714;2022-12-29T00:07:00;-23955.13;;;4.96;nan
7105;BME280;3594;42.152;24.714;2022-12-29T00:09:26;-23952.56;;;4.87;nan
7105;BME280;3594;42.152;24.714;2022-12-29T00:11:52;-23947.59;;;4.69;nan
7105;BME280;3594;42.152;24.714;2022-12-29T00:14:17;-23955.13;;;4.96;nan
7105;BME280;3594;42.152;24.714;2022-12-29T00:17:02;-23955.41;;;4.97;nan
7105;BME280;3594;42.152;24.714;2022-12-29T00:19:27;-23949.88;;;4.77;nan
7105;BME280;3594;42.152;24.714;2022-12-29T00:22:13;-23951.44;;;4.83;nan
7105;BME280;3594;42.152;24.714;2022-12-29T00:24:57;-23957.97;;;5.06;nan
7105;BME280;3594;42.152;24.714;2022-12-29T00:27:41;-23951.56;;;4.83;nan
7105;BME280;3594;42.152;24.714;2022-12-29T00:30:25;-23960.41;;;5.15;nan
7105;BME280;3594;42.152;24.714;2022-12-29T00:33:17;-23952.00;;;4.85;nan
7105;BME280;3594;42.152;24.714;2022-12-29T00:38:29;-23955.56;;;4.98;nan
7105;BME280;3594;42.152;24.714;2022-12-29T00:41:14;-23959.13;;;5.10;nan
7105;BME280;3594;42.152;24.714;2022-12-29T00:43:58;-23959.41;;;5.11;nan
7105;BME280;3594;42.152;24.714;2022-12-29T00:46:36;-23939.19;;;4.39;nan
7105;BME280;3594;42.152;24.714;2022-12-29T00:49:03;-23955.13;;;4.96;nan
7105;BME280;3594;42.152;24.714;2022-12-29T00:51:48;-23945.47;;;4.62;nan
7105;BME280;3594;42.152;24.714;2022-12-29T00:54:14;-23948.31;;;4.72;nan
7105;BME280;3594;42.152;24.714;2022-12-29T00:56:39;-23950.84;;;4.81;nan
7105;BME280;3594;42.152;24.714;2022-12-29T00:59:08;-23956.56;;;5.01;nan
7105;BME280;3594;42.152;24.714;2022-12-29T01:01:34;-23944.31;;;4.58;nan
7105;BME280;3594;42.152;24.714;2022-12-29T01:04:00;-23947.44;;;4.69;nan
7105;BME280;3594;42.152;24.714;2022-12-29T01:06:25;-23956.97;;;5.03;nan
7105;BME280;3594;42.152;24.714;2022-12-29T01:08:51;-23952.28;;;4.86;nan
7105;BME280;3594;42.152;24.714;2022-12-29T01:11:36;-23944.75;;;4.59;nan
7105;BME280;3594;42.152;24.714;2022-12-29T01:14:02;-23953.84;;;4.92;nan
7105;BME280;3594;42.152;24.714;2022-12-29T01:16:27;-23958.13;;;5.07;nan
7105;BME280;3594;42.152;24.714;2022-12-29T01:18:53;-23950.16;;;4.78;nan
7105;BME280;3594;42.152;24.714;2022-12-29T01:21:18;-23960.53;;;5.15;nan
7105;BME280;3594;42.152;24.714;2022-12-29T01:23:44;-23958.81;;;5.09;nan
7105;BME280;3594;42.152;24.714;2022-12-29T01:26:10;-23957.25;;;5.04;nan
7105;BME280;3594;42.152;24.714;2022-12-29T01:28:36;-23955.41;;;4.97;nan
7105;BME280;3594;42.152;24.714;2022-12-29T01:31:05;-23963.66;;;5.26;nan
7105;BME280;3594;42.152;24.714;2022-12-29T01:33:30;-23964.81;;;5.30;nan
7105;BME280;3594;42.152;24.714;2022-12-29T01:36:00;-23966.78;;;5.38;nan
7105;BME280;3594;42.152;24.714;2022-12-29T01:38:25;-23955.41;;;4.97;nan
7105;BME280;3594;42.152;24.714;2022-12-29T01:40:51;-23959.13;;;5.10;nan
7105;BME280;3594;42.152;24.714;2022-12-29T01:43:16;-23957.53;;;5.05;nan
7105;BME280;3594;42.152;24.714;2022-12-29T01:45:48;-23969.63;;;5.48;nan
7105;BME280;3594;42.152;24.714;2022-12-29T01:48:16;-23970.22;;;5.50;nan
7105;BME280;3594;42.152;24.714;2022-12-29T01:50:50;-23968.78;;;5.45;nan
7105;BME280;3594;42.152;24.714;2022-12-29T01:53:19;-23959.41;;;5.11;nan
7105;BME280;3594;42.152;24.714;2022-12-29T01:55:52;-23957.53;;;5.05;nan
7105;BME280;3594;42.152;24.714;2022-12-29T01:58:22;-23968.50;;;5.44;nan
7105;BME280;3594;42.152;24.714;2022-12-29T02:00:49;-23970.78;;;5.52;nan
7105;BME280;3594;42.152;24.714;2022-12-29T02:03:16;-23950.56;;;4.80;nan
7105;BME280;3594;42.152;24.714;2022-12-29T02:08:17;-23970.22;;;5.50;nan
7105;BME280;3594;42.152;24.714;2022-12-29T02:10:44;-23971.34;;;5.54;nan
7105;BME280;3594;42.152;24.714;2022-12-29T02:13:10;-23963.25;;;5.25;nan
7105;BME280;3594;42.152;24.714;2022-12-29T02:18:36;-23961.09;;;5.17;nan
7105;BME280;3594;42.152;24.714;2022-12-29T02:23:54;-23970.78;;;5.52;nan
7105;BME280;3594;42.152;24.714;2022-12-29T02:29:21;-23965.66;;;5.33;nan
7105;BME280;3594;42.152;24.714;2022-12-29T02:37:41;-23961.53;;;5.19;nan
7105;BME280;3594;42.152;24.714;2022-12-29T02:40:57;-23960.81;;;5.16;nan
7105;BME280;3594;42.152;24.714;2022-12-29T02:43:21;-23944.88;;;4.60;nan
7105;BME280;3594;42.152;24.714;2022-12-29T02:51:09;-23951.16;;;4.82;nan
7105;BME280;3594;42.152;24.714;2022-12-29T02:53:38;-23932.50;;;4.16;nan
7105;BME280;3594;42.152;24.714;2022-12-29T02:56:22;-23950.84;;;4.81;nan
7105;BME280;3594;42.152;24.714;2022-12-29T02:58:48;-23948.88;;;4.74;nan
7105;BME280;3594;42.152;24.714;2022-12-29T03:04:53;-23949.44;;;4.76;nan
7105;BME280;3594;42.152;24.714;2022-12-29T03:07:52;-23948.03;;;4.71;nan
7105;BME280;3594;42.152;24.714;2022-12-29T03:15:55;-23936.34;;;4.29;nan
7105;BME280;3594;42.152;24.714;2022-12-29T03:18:58;-23918.13;;;3.65;nan
7105;BME280;3594;42.152;24.714;2022-12-29T03:21:38;-23916.84;;;3.60;nan
7105;BME280;3594;42.152;24.714;2022-12-29T03:24:30;-23923.09;;;3.82;nan
7105;BME280;3594;42.152;24.714;2022-12-29T03:26:59;-23914.53;;;3.52;nan
7105;BME280;3594;42.152;24.714;2022-12-29T03:29:27;-23913.25;;;3.47;nan
7105;BME280;3594;42.152;24.714;2022-12-29T03:31:55;-23914.13;;;3.50;nan
7105;BME280;3594;42.152;24.714;2022-12-29T03:34:22;-23909.00;;;3.32;nan
7105;BME280;3594;42.152;24.714;2022-12-29T03:37:02;-23907.13;;;3.26;nan
7105;BME280;3594;42.152;24.714;2022-12-29T03:39:30;-23914.13;;;3.50;nan
7105;BME280;3594;42.152;24.714;2022-12-29T03:42:01;-23906.84;;;3.25;nan
7105;BME280;3594;42.152;24.714;2022-12-29T03:44:35;-23902.72;;;3.10;nan
7105;BME280;3594;42.152;24.714;2022-12-29T03:47:01;-23905.72;;;3.21;nan
7105;BME280;3594;42.152;24.714;2022-12-29T03:49:27;-23905.13;;;3.19;nan
7105;BME280;3594;42.152;24.714;2022-12-29T03:51:53;-23906.28;;;3.23;nan
7105;BME280;3594;42.152;24.714;2022-12-29T03:54:18;-23909.56;;;3.34;nan
7105;BME280;3594;42.152;24.714;2022-12-29T03:56:44;-23905.28;;;3.19;nan
7105;BME280;3594;42.152;24.714;2022-12-29T03:59:09;-23910.84;;;3.39;nan
7105;BME280;3594;42.152;24.714;2022-12-29T04:01:35;-23897.28;;;2.91;nan
7105;BME280;3594;42.152;24.714;2022-12-29T04:04:00;-23916.25;;;3.58;nan
7105;BME280;3594;42.152;24.714;2022-12-29T04:06:25;-23914.53;;;3.52;nan
7105;BME280;3594;42.152;24.714;2022-12-29T04:08:51;-23909.56;;;3.34;nan
7105;BME280;3594;42.152;24.714;2022-12-29T04:11:16;-23909.28;;;3.33;nan
7105;BME280;3594;42.152;24.714;2022-12-29T04:13:41;-23908.41;;;3.30;nan
7105;BME280;3594;42.152;24.714;2022-12-29T04:16:07;-23899.00;;;2.97;nan
7105;BME280;3594;42.152;24.714;2022-12-29T04:18:33;-23895.00;;;2.83;nan
7105;BME280;3594;42.152;24.714;2022-12-29T04:20:58;-23902.84;;;3.10;nan
7105;BME280;3594;42.152;24.714;2022-12-29T04:23:29;-23901.28;;;3.05;nan
7105;BME280;3594;42.152;24.714;2022-12-29T04:25:55;-23902.28;;;3.08;nan
7105;BME280;3594;42.152;24.714;2022-12-29T04:28:20;-23891.16;;;2.69;nan
7105;BME280;3594;42.152;24.714;2022-12-29T04:30:46;-23899.28;;;2.98;nan
7105;BME280;3594;42.152;24.714;2022-12-29T04:33:12;-23896.28;;;2.87;nan
7105;BME280;3594;42.152;24.714;2022-12-29T04:35:37;-23892.44;;;2.74;nan
7105;BME280;3594;42.152;24.714;2022-12-29T04:38:03;-23893.31;;;2.77;nan
7105;BME280;3594;42.152;24.714;2022-12-29T04:40:28;-23896.28;;;2.87;nan
7105;BME280;3594;42.152;24.714;2022-12-29T04:42:54;-23888.59;;;2.60;nan
7105;BME280;3594;42.152;24.714;2022-12-29T04:45:20;-23889.59;;;2.63;nan
7105;BME280;3594;42.152;24.714;2022-12-29T04:47:45;-23896.00;;;2.86;nan
7105;BME280;3594;42.152;24.714;2022-12-29T04:50:11;-23888.72;;;2.60;nan
7105;BME280;3594;42.152;24.714;2022-12-29T04:52:36;-23899.56;;;2.99;nan
7105;BME280;3594;42.152;24.714;2022-12-29T04:55:03;-23886.31;;;2.52;nan
7105;BME280;3594;42.152;24.714;2022-12-29T04:57:28;-23887.59;;;2.56;nan
7105;BME280;3594;42.152;24.714;2022-12-29T04:59:53;-23886.75;;;2.53;nan
7105;BME280;3594;42.152;24.714;2022-12-29T05:02:19;-23881.03;;;2.33;nan
7105;BME280;3594;42.152;24.714;2022-12-29T05:04:45;-23894.59;;;2.81;nan
7105;BME280;3594;42.152;24.714;2022-12-29T05:07:11;-23882.44;;;2.38;nan
7105;BME280;3594;42.152;24.714;2022-12-29T05:09:37;-23888.16;;;2.58;nan
7105;BME280;3594;42.152;24.714;2022-12-29T05:12:02;-23892.72;;;2.75;nan
7105;BME280;3594;42.152;24.714;2022-12-29T05:14:28;-23894.00;;;2.79;nan
7105;BME280;3594;42.152;24.714;2022-12-29T05:20:15;-23877.47;;;2.20;nan
7105;BME280;3594;42.152;24.714;2022-12-29T05:22:40;-23888.59;;;2.60;nan
7105;BME280;3594;42.152;24.714;2022-12-29T05:25:06;-23887.31;;;2.55;nan
7105;BME280;3594;42.152;24.714;2022-12-29T05:27:32;-23884.75;;;2.46;nan
7105;BME280;3594;42.152;24.714;2022-12-29T05:29:57;-23877.75;;;2.21;nan
7105;BME280;3594;42.152;24.714;2022-12-29T05:32:22;-23875.75;;;2.14;nan
7105;BME280;3594;42.152;24.714;2022-12-29T05:34:48;-23883.31;;;2.41;nan
7105;BME280;3594;42.152;24.714;2022-12-29T05:37:13;-23879.31;;;2.27;nan
7105;BME280;3594;42.152;24.714;2022-12-29T05:39:39;-23880.31;;;2.31;nan
7105;BME280;3594;42.152;24.714;2022-12-29T05:42:04;-23870.16;;;1.95;nan
7105;BME280;3594;42.152;24.714;2022-12-29T05:44:30;-23868.16;;;1.88;nan
7105;BME280;3594;42.152;24.714;2022-12-29T05:46:55;-23871.59;;;2.00;nan
7105;BME280;3594;42.152;24.714;2022-12-29T05:49:21;-23866.88;;;1.83;nan
7105;BME280;3594;42.152;24.714;2022-12-29T05:55:07;-23872.03;;;2.01;nan
7105;BME280;3594;42.152;24.714;2022-12-29T05:57:33;-23869.88;;;1.94;nan
7105;BME280;3594;42.152;24.714;2022-12-29T05:59:58;-23881.59;;;2.35;nan
7105;BME280;3594;42.152;24.714;2022-12-29T06:02:24;-23861.16;;;1.63;nan
7105;BME280;3594;42.152;24.714;2022-12-29T06:04:49;-23875.88;;;2.15;nan
7105;BME280;3594;42.152;24.714;2022-12-29T06:07:15;-23879.16;;;2.27;nan
7105;BME280;3594;42.152;24.714;2022-12-29T06:09:40;-23871.59;;;2.00;nan
7105;BME280;3594;42.152;24.714;2022-12-29T06:12:06;-23883.16;;;2.41;nan
7105;BME280;3594;42.152;24.714;2022-12-29T06:14:31;-23883.03;;;2.40;nan
7105;BME280;3594;42.152;24.714;2022-12-29T06:16:57;-23876.16;;;2.16;nan
7105;BME280;3594;42.152;24.714;2022-12-29T06:19:22;-23873.88;;;2.08;nan
7105;BME280;3594;42.152;24.714;2022-12-29T06:21:47;-23873.47;;;2.06;nan
7105;BME280;3594;42.152;24.714;2022-12-29T06:24:13;-23891.16;;;2.69;nan
7105;BME280;3594;42.152;24.714;2022-12-29T06:26:38;-23886.16;;;2.51;nan
7105;BME280;3594;42.152;24.714;2022-12-29T06:29:05;-23883.75;;;2.43;nan
7105;BME280;3594;42.152;24.714;2022-12-29T06:31:32;-23894.31;;;2.80;nan
7105;BME280;3594;42.152;24.714;2022-12-29T06:33:57;-23890.72;;;2.67;nan
7105;BME280;3594;42.152;24.714;2022-12-29T06:36:23;-23889.59;;;2.63;nan
7105;BME280;3594;42.152;24.714;2022-12-29T06:38:48;-23875.75;;;2.14;nan
7105;BME280;3594;42.152;24.714;2022-12-29T06:41:14;-23891.00;;;2.68;nan
7105;BME280;3594;42.152;24.714;2022-12-29T06:43:39;-23882.31;;;2.38;nan
7105;BME280;3594;42.152;24.714;2022-12-29T06:46:05;-23876.16;;;2.16;nan
7105;BME280;3594;42.152;24.714;2022-12-29T06:48:30;-23871.31;;;1.99;nan
7105;BME280;3594;42.152;24.714;2022-12-29T06:50:56;-23859.59;;;1.57;nan
7105;BME280;3594;42.152;24.714;2022-12-29T06:53:21;-23858.59;;;1.54;nan
7105;BME280;3594;42.152;24.714;2022-12-29T06:55:47;-23852.88;;;1.33;nan
7105;BME280;3594;42.152;24.714;2022-12-29T06:58:12;-23859.88;;;1.58;nan
7105;BME280;3594;42.152;24.714;2022-12-29T07:00:37;-23858.75;;;1.54;nan
7105;BME280;3594;42.152;24.714;2022-12-29T07:03:03;-23860.03;;;1.59;nan
7105;BME280;3594;42.152;24.714;2022-12-29T07:05:28;-23847.88;;;1.16;nan
7105;BME280;3594;42.152;24.714;2022-12-29T07:07:56;-23860.59;;;1.61;nan
7105;BME280;3594;42.152;24.714;2022-12-29T07:10:22;-23860.75;;;1.61;nan
7105;BME280;3594;42.152;24.714;2022-12-29T07:12:48;-23855.03;;;1.41;nan
7105;BME280;3594;42.152;24.714;2022-12-29T07:15:13;-23863.16;;;1.70;nan
7105;BME280;3594;42.152;24.714;2022-12-29T07:17:38;-23868.47;;;1.89;nan
7105;BME280;3594;42.152;24.714;2022-12-29T07:20:05;-23867.59;;;1.86;nan
7105;BME280;3594;42.152;24.714;2022-12-29T07:22:31;-23877.31;;;2.20;nan
7105;BME280;3594;42.152;24.714;2022-12-29T07:24:56;-23888.31;;;2.59;nan
7105;BME280;3594;42.152;24.714;2022-12-29T07:27:22;-23892.72;;;2.75;nan
7105;BME280;3594;42.152;24.714;2022-12-29T07:29:47;-23881.88;;;2.36;nan
7105;BME280;3594;42.152;24.714;2022-12-29T07:32:12;-23901.00;;;3.04;nan
7105;BME280;3594;42.152;24.714;2022-12-29T07:34:38;-23894.72;;;2.82;nan
7105;BME280;3594;42.152;24.714;2022-12-29T07:37:05;-23893.88;;;2.79;nan
7105;BME280;3594;42.152;24.714;2022-12-29T07:39:30;-23905.41;;;3.20;nan
7105;BME280;3594;42.152;24.714;2022-12-29T07:41:55;-23898.72;;;2.96;nan
7105;BME280;3594;42.152;24.714;2022-12-29T07:44:21;-23904.84;;;3.18;nan
7105;BME280;3594;42.152;24.714;2022-12-29T07:46:46;-23907.00;;;3.25;nan
7105;BME280;3594;42.152;24.714;2022-12-29T07:49:12;-23905.84;;;3.21;nan
7105;BME280;3594;42.152;24.714;2022-12-29T07:51:37;-23920.38;;;3.73;nan
7105;BME280;3594;42.152;24.714;2022-12-29T07:54:03;-23917.41;;;3.62;nan
7105;BME280;3594;42.152;24.714;2022-12-29T07:56:28;-23910.69;;;3.38;nan
7105;BME280;3594;42.152;24.714;2022-12-29T07:58:53;-23921.53;;;3.77;nan
7105;BME280;3594;42.152;24.714;2022-12-29T08:01:19;-23913.25;;;3.47;nan
7105;BME280;3594;42.152;24.714;2022-12-29T08:03:44;-23929.78;;;4.06;nan
7105;BME280;3594;42.152;24.714;2022-12-29T08:06:10;-23931.34;;;4.12;nan
7105;BME280;3594;42.152;24.714;2022-12-29T08:08:36;-23936.34;;;4.29;nan
7105;BME280;3594;42.152;24.714;2022-12-29T08:11:01;-23940.91;;;4.45;nan
7105;BME280;3594;42.152;24.714;2022-12-29T08:13:27;-23944.03;;;4.57;nan
7105;BME280;3594;42.152;24.714;2022-12-29T08:15:52;-23945.47;;;4.62;nan
7105;BME280;3594;42.152;24.714;2022-12-29T08:18:18;-23944.03;;;4.57;nan
7105;BME280;3594;42.152;24.714;2022-12-29T08:20:43;-23944.47;;;4.58;nan
7105;BME280;3594;42.152;24.714;2022-12-29T08:23:08;-23943.59;;;4.55;nan
7105;BME280;3594;42.152;24.714;2022-12-29T08:25:34;-23951.16;;;4.82;nan
7105;BME280;3594;42.152;24.714;2022-12-29T08:27:59;-23956.97;;;5.03;nan
7105;BME280;3594;42.152;24.714;2022-12-29T08:30:24;-23945.03;;;4.60;nan
7105;BME280;3594;42.152;24.714;2022-12-29T08:32:50;-23953.13;;;4.89;nan
7105;BME280;3594;42.152;24.714;2022-12-29T08:35:15;-23952.84;;;4.88;nan
7105;BME280;3594;42.152;24.714;2022-12-29T08:37:41;-23951.44;;;4.83;nan
7105;BME280;3594;42.152;24.714;2022-12-29T08:40:07;-23951.44;;;4.83;nan
7105;BME280;3594;42.152;24.714;2022-12-29T08:42:33;-23944.03;;;4.57;nan
7105;BME280;3594;42.152;24.714;2022-12-29T08:44:59;-23953.72;;;4.91;nan
7105;BME280;3594;42.152;24.714;2022-12-29T08:47:25;-23950.28;;;4.79;nan
7105;BME280;3594;42.152;24.714;2022-12-29T08:49:50;-23963.38;;;5.25;nan
7105;BME280;3594;42.152;24.714;2022-12-29T08:52:17;-23954.00;;;4.92;nan
7105;BME280;3594;42.152;24.714;2022-12-29T08:54:42;-23957.41;;;5.04;nan
7105;BME280;3594;42.152;24.714;2022-12-29T08:57:08;-23960.53;;;5.15;nan
7105;BME280;3594;42.152;24.714;2022-12-29T08:59:33;-23970.63;;;5.51;nan
7105;BME280;3594;42.152;24.714;2022-12-29T09:01:58;-23971.63;;;5.55;nan
7105;BME280;3594;42.152;24.714;2022-12-29T09:04:24;-23968.50;;;5.44;nan
7105;BME280;3594;42.152;24.714;2022-12-29T09:06:49;-23975.03;;;5.67;nan
7105;BME280;3594;42.152;24.714;2022-12-29T09:09:15;-23990.81;;;6.23;nan
7105;BME280;3594;42.152;24.714;2022-12-29T09:11:41;-23996.22;;;6.42;nan
7105;BME280;3594;42.152;24.714;2022-12-29T09:14:07;-23991.81;;;6.27;nan
7105;BME280;3594;42.152;24.714;2022-12-29T09:16:33;-23996.91;;;6.45;nan
7105;BME280;3594;42.152;24.714;2022-12-29T09:18:59;-24008.56;;;6.86;nan
7105;BME280;3594;42.152;24.714;2022-12-29T09:21:24;-24018.75;;;7.23;nan
7105;BME280;3594;42.152;24.714;2022-12-29T09:23:49;-24024.16;;;7.42;nan
7105;BME280;3594;42.152;24.714;2022-12-29T09:26:15;-24023.59;;;7.40;nan
7105;BME280;3594;42.152;24.714;2022-12-29T09:28:41;-24021.03;;;7.31;nan
7105;BME280;3594;42.152;24.714;2022-12-29T09:31:07;-24026.28;;;7.49;nan
7105;BME280;3594;42.152;24.714;2022-12-29T09:33:32;-24042.44;;;8.07;nan
7105;BME280;3594;42.152;24.714;2022-12-29T09:36:02;-24052.91;;;8.45;nan
7105;BME280;3594;42.152;24.714;2022-12-29T09:38:28;-24046.41;;;8.21;nan
7105;BME280;3594;42.152;24.714;2022-12-29T09:41:23;-24048.22;;;8.28;nan
7105;BME280;3594;42.152;24.714;2022-12-29T09:44:03;-24048.50;;;8.29;nan
7105;BME280;3594;42.152;24.714;2022-12-29T09:46:35;-24046.25;;;8.21;nan
7105;BME280;3594;42.152;24.714;2022-12-29T09:52:01;-24051.91;;;8.41;nan
7105;BME280;3594;42.152;24.714;2022-12-29T09:54:53;-24056.31;;;8.57;nan
7105;BME280;3594;42.152;24.714;2022-12-29T10:00:05;-24051.50;;;8.39;nan
7105;BME280;3594;42.152;24.714;2022-12-29T10:02:51;-24066.22;;;8.92;nan
7105;BME280;3594;42.152;24.714;2022-12-29T10:10:40;-24082.47;;;9.50;nan
7105;BME280;3594;42.152;24.714;2022-12-29T10:16:18;-24079.06;;;9.38;nan
7105;BME280;3594;42.152;24.714;2022-12-29T10:24:12;-24086.13;;;9.63;nan
7105;BME280;3594;42.152;24.714;2022-12-29T10:26:43;-24092.50;;;9.86;nan
7105;BME280;3594;42.152;24.714;2022-12-29T10:29:13;-24096.72;;;10.01;nan
7105;BME280;3594;42.152;24.714;2022-12-29T10:31:48;-24099.69;;;10.12;nan
7105;BME280;3594;42.152;24.714;2022-12-29T10:39:52;-24070.72;;;9.08;nan
7105;BME280;3594;42.152;24.714;2022-12-29T10:42:27;-24082.47;;;9.50;nan
7105;BME280;3594;42.152;24.714;2022-12-29T10:44:54;-24080.91;;;9.45;nan
7105;BME280;3594;42.152;24.714;2022-12-29T10:47:26;-24069.75;;;9.05;nan
7105;BME280;3594;42.152;24.714;2022-12-29T10:49:53;-24080.22;;;9.42;nan
7105;BME280;3594;42.152;24.714;2022-12-29T10:52:20;-24088.13;;;9.70;nan
7105;BME280;3594;42.152;24.714;2022-12-29T10:55:08;-24078.94;;;9.38;nan
7105;BME280;3594;42.152;24.714;2022-12-29T10:57:41;-24073.13;;;9.17;nan
7105;BME280;3594;42.152;24.714;2022-12-29T11:02:51;-24090.94;;;9.81;nan
7105;BME280;3594;42.152;24.714;2022-12-29T11:05:34;-24091.38;;;9.82;nan
7105;BME280;3594;42.152;24.714;2022-12-29T11:08:14;-24092.50;;;9.86;nan
7105;BME280;3594;42.152;24.714;2022-12-29T11:10:43;-24097.31;;;10.03;nan
7105;BME280;3594;42.152;24.714;2022-12-29T11:13:25;-24099.97;;;10.13;nan
7105;BME280;3594;42.152;24.714;2022-12-29T11:15:51;-24087.97;;;9.70;nan
7105;BME280;3594;42.152;24.714;2022-12-29T11:20:46;-24096.88;;;10.02;nan
7105;BME280;3594;42.152;24.714;2022-12-29T11:23:25;-24110.00;;;10.49;nan
7105;BME280;3594;42.152;24.714;2022-12-29T11:26:22;-24106.75;;;10.37;nan
7105;BME280;3594;42.152;24.714;2022-12-29T11:29:10;-24112.13;;;10.56;nan
7105;BME280;3594;42.152;24.714;2022-12-29T11:31:57;-24118.75;;;10.80;nan
7105;BME280;3594;42.152;24.714;2022-12-29T11:36:52;-24116.91;;;10.74;nan
7105;BME280;3594;42.152;24.714;2022-12-29T11:39:27;-24101.69;;;10.19;nan
7105;BME280;3594;42.152;24.714;2022-12-29T11:41:54;-24104.66;;;10.30;nan
7105;BME280;3594;42.152;24.714;2022-12-29T11:44:20;-24105.34;;;10.32;nan
7105;BME280;3594;42.152;24.714;2022-12-29T11:46:48;-24112.69;;;10.58;nan
7105;BME280;3594;42.152;24.714;2022-12-29T11:49:20;-24101.41;;;10.18;nan
7105;BME280;3594;42.152;24.714;2022-12-29T11:51:49;-24109.88;;;10.48;nan
7105;BME280;3594;42.152;24.714;2022-12-29T11:54:25;-24116.34;;;10.72;nan
7105;BME280;3594;42.152;24.714;2022-12-29T11:56:52;-24111.41;;;10.54;nan
7105;BME280;3594;42.152;24.714;2022-12-29T12:01:56;-24119.75;;;10.84;nan
7105;BME280;3594;42.152;24.714;2022-12-29T12:04:26;-24112.56;;;10.58;nan
7105;BME280;3594;42.152;24.714;2022-12-29T12:09:51;-24118.91;;;10.81;nan
7105;BME280;3594;42.152;24.714;2022-12-29T12:15:27;-24109.44;;;10.47;nan
7105;BME280;3594;42.152;24.714;2022-12-29T12:18:00;-24121.16;;;10.89;nan
7105;BME280;3594;42.152;24.714;2022-12-29T12:21:15;-24125.38;;;11.04;nan
7105;BME280;3594;42.152;24.714;2022-12-29T12:23:46;-24124.81;;;11.02;nan
7105;BME280;3594;42.152;24.714;2022-12-29T12:26:19;-24107.03;;;10.38;nan
7105;BME280;3594;42.152;24.714;2022-12-29T12:31:49;-24116.34;;;10.72;nan
7105;BME280;3594;42.152;24.714;2022-12-29T12:34:33;-24122.84;;;10.95;nan
7105;BME280;3594;42.152;24.714;2022-12-29T12:40:02;-24108.31;;;10.43;nan
7105;BME280;3594;42.152;24.714;2022-12-29T12:47:54;-24117.63;;;10.76;nan
7105;BME280;3594;42.152;24.714;2022-12-29T12:50:36;-24104.22;;;10.28;nan
7105;BME280;3594;42.152;24.714;2022-12-29T12:58:06;-24105.22;;;10.32;nan
7105;BME280;3594;42.152;24.714;2022-12-29T13:09:41;-24114.81;;;10.66;nan
7105;BME280;3594;42.152;24.714;2022-12-29T13:12:36;-24120.16;;;10.85;nan
7105;BME280;3594;42.152;24.714;2022-12-29T13:18:23;-24102.38;;;10.22;nan
7105;BME280;3594;42.152;24.714;2022-12-29T13:20:52;-24108.16;;;10.42;nan
7105;BME280;3594;42.152;24.714;2022-12-29T13:26:08;-24102.38;;;10.22;nan
7105;BME280;3594;42.152;24.714;2022-12-29T13:31:55;-24110.00;;;10.49;nan
7105;BME280;3594;42.152;24.714;2022-12-29T13:37:10;-24100.25;;;10.14;nan
7105;BME280;3594;42.152;24.714;2022-12-29T13:39:40;-24111.69;;;10.55;nan
7105;BME280;3594;42.152;24.714;2022-12-29T13:42:07;-24087.97;;;9.70;nan
7105;BME280;3594;42.152;24.714;2022-12-29T13:44:35;-24102.66;;;10.23;nan
7105;BME280;3594;42.152;24.714;2022-12-29T13:47:26;-24095.03;;;9.95;nan
7105;BME280;3594;42.152;24.714;2022-12-29T13:49:53;-24095.59;;;9.97;nan
7105;BME280;3594;42.152;24.714;2022-12-29T13:52:39;-24106.19;;;10.35;nan
7105;BME280;3594;42.152;24.714;2022-12-29T14:01:46;-24092.34;;;9.86;nan
7105;BME280;3594;42.152;24.714;2022-12-29T14:04:12;-24098.72;;;10.08;nan
7105;BME280;3594;42.152;24.714;2022-12-29T14:06:38;-24083.75;;;9.55;nan
7105;BME280;3594;42.152;24.714;2022-12-29T14:09:26;-24080.50;;;9.43;nan
7105;BME280;3594;42.152;24.714;2022-12-29T14:11:52;-24086.56;;;9.65;nan
7105;BME280;3594;42.152;24.714;2022-12-29T14:14:19;-24098.16;;;10.06;nan
7105;BME280;3594;42.152;24.714;2022-12-29T14:16:47;-24087.69;;;9.69;nan
7105;BME280;3594;42.152;24.714;2022-12-29T14:21:38;-24082.59;;;9.51;nan
7105;BME280;3594;42.152;24.714;2022-12-29T14:26:52;-24081.91;;;9.48;nan
7105;BME280;3594;42.152;24.714;2022-12-29T14:31:49;-24076.81;;;9.30;nan
7105;BME280;3594;42.152;24.714;2022-12-29T14:39:30;-24076.25;;;9.28;nan
7105;BME280;3594;42.152;24.714;2022-12-29T14:42:00;-24067.06;;;8.95;nan
7105;BME280;3594;42.152;24.714;2022-12-29T14:44:28;-24067.06;;;8.95;nan
7105;BME280;3594;42.152;24.714;2022-12-29T14:49:21;-24057.28;;;8.60;nan
7105;BME280;3594;42.152;24.714;2022-12-29T14:51:50;-24061.69;;;8.76;nan
7105;BME280;3594;42.152;24.714;2022-12-29T14:57:03;-24065.34;;;8.89;nan
7105;BME280;3594;42.152;24.714;2022-12-29T14:59:33;-24067.91;;;8.98;nan
7105;BME280;3594;42.152;24.714;2022-12-29T15:02:04;-24068.34;;;9.00;nan
7105;BME280;3594;42.152;24.714;2022-12-29T15:04:38;-24064.38;;;8.85;nan
7105;BME280;3594;42.152;24.714;2022-12-29T15:07:08;-24047.09;;;8.24;nan
7105;BME280;3594;42.152;24.714;2022-12-29T15:09:44;-24052.47;;;8.43;nan
7105;BME280;3594;42.152;24.714;2022-12-29T15:14:59;-24048.38;;;8.28;nan
7105;BME280;3594;42.152;24.714;2022-12-29T15:17:26;-24046.25;;;8.21;nan
7105;BME280;3594;42.152;24.714;2022-12-29T15:19:53;-24035.22;;;7.81;nan
7105;BME280;3594;42.152;24.714;2022-12-29T15:22:19;-24039.72;;;7.97;nan
7105;BME280;3594;42.152;24.714;2022-12-29T15:24:44;-24029.69;;;7.62;nan
7105;BME280;3594;42.152;24.714;2022-12-29T15:27:14;-24038.19;;;7.92;nan
7105;BME280;3594;42.152;24.714;2022-12-29T15:29:42;-24038.19;;;7.92;nan
7105;BME280;3594;42.152;24.714;2022-12-29T15:32:23;-24038.47;;;7.93;nan
7105;BME280;3594;42.152;24.714;2022-12-29T15:34:58;-24031.25;;;7.67;nan
7105;BME280;3594;42.152;24.714;2022-12-29T15:37:33;-24021.03;;;7.31;nan
7105;BME280;3594;42.152;24.714;2022-12-29T15:40:01;-24036.63;;;7.86;nan
7105;BME280;3594;42.152;24.714;2022-12-29T15:45:26;-24035.78;;;7.83;nan
7105;BME280;3594;42.152;24.714;2022-12-29T15:47:55;-24024.88;;;7.44;nan
7105;BME280;3594;42.152;24.714;2022-12-29T15:50:29;-24026.69;;;7.51;nan
7105;BME280;3594;42.152;24.714;2022-12-29T15:52:57;-24036.47;;;7.86;nan
7105;BME280;3594;42.152;24.714;2022-12-29T15:55:33;-24029.53;;;7.61;nan
7105;BME280;3594;42.152;24.714;2022-12-29T15:58:01;-24024.00;;;7.41;nan
7105;BME280;3594;42.152;24.714;2022-12-29T16:00:30;-24030.66;;;7.65;nan
7105;BME280;3594;42.152;24.714;2022-12-29T16:02:59;-24031.81;;;7.69;nan
7105;BME280;3594;42.152;24.714;2022-12-29T16:05:32;-24028.97;;;7.59;nan
7105;BME280;3594;42.152;24.714;2022-12-29T16:07:59;-24032.09;;;7.70;nan
7105;BME280;3594;42.152;24.714;2022-12-29T16:10:43;-24031.94;;;7.70;nan
7105;BME280;3594;42.152;24.714;2022-12-29T16:13:26;-24033.50;;;7.75;nan
7105;BME280;3594;42.152;24.714;2022-12-29T16:15:58;-24028.41;;;7.57;nan